Qu'Appelle, Canada
Current Conditions -  °F | °C
As of 11:00 AM on Friday 21 Nov 2014 (Local Time) from CYQR Reporting Station
Broken Clouds Broken Clouds  
Wind Chill: -4°   Ceiling: 14000
Heat Index:   Visibility: 15mi
Dew Point: -2°   Wind: 17mph
Humidity: 75%   Direction: 280°W
Pressure: 29.5"   Gusts: 24mph
Location:  50.53°N, 103.87°W
Report Text: CYQR 211700Z 28015G21KT 15SM SCT080 BKN140 02/M02 A2950 RMK AC3AC4 SLP019
Loading
Personal Weather Stations






























Interactive Weather Map New forecast layout! Learn more

10-Day Weather Forecast

Advertisements
Track Severe Weather on mobile